首页
METAR-TAF:

METAR-TAF

机场 :

蒙特利尔皮埃尔·埃利奥特·特鲁多国际机场

蒙特利尔特鲁多, 魁北克, 加拿大

纬度: 45-28N, 经度: 073-45W, 海拔: 31米

当前天气观测

该预报发布于19分钟前的21:00 UTC
风速6节,风向西转西北,在西转西南之间变化
温度 14°C
湿度 33%
气压 1035 hPa
能見度: 48.3公里
少量云层高于6500英尺

METAR: CYUL 202100Z 29006KT 250V360 30SM FEW065 14/M02 A3057 RMK CF1 CF TR SLP353

时间: 17:19 (21:19 UTC)

预报

该预报发布于41分钟前的20:38 UTC
预报有效从20日的 21点(UTC)到 21日的 18点(UTC)
风速3节,风向多变
能見度: 10公里
少量云层高于5000英尺
几率 30%
从 21日的 08点(UTC)到 21日的 13点(UTC)
能見度: 1.6公里
轻雾

TAF: CYUL 202038Z 2021/2118 VRB03KT P6SM FEW050 PROB30 2108/2113 1SM BR RMK NXT FCST BY 210000Z

超过4000个机场的气象观测和天气预报(METAR&TAF报告)。

可查询的气象台以黄色和红色小点在地图上表示。

将鼠标移到小点上方,可查看气象台名称。

然后点击查看天气观测和预报。

如需切换地图:点击带黑十字的绿色按钮放大地图;点击带横线的绿色按钮缩小地图;或者点击绿色箭头查看邻近地区的地图。


METAR-TAF: